sensor_id;sensor_type;location;lat;lon;timestamp;P1;durP1;ratioP1;P2;durP2;ratioP2
75234;SDS011;63817;51.228;-1.472;2023-04-12T00:02:05;29.83;;;4.25;;
75234;SDS011;63817;51.228;-1.472;2023-04-12T00:04:30;26.20;;;4.22;;
75234;SDS011;63817;51.228;-1.472;2023-04-12T00:06:58;34.38;;;5.90;;
75234;SDS011;63817;51.228;-1.472;2023-04-12T00:09:25;25.50;;;4.35;;
75234;SDS011;63817;51.228;-1.472;2023-04-12T00:11:54;30.58;;;4.10;;
75234;SDS011;63817;51.228;-1.472;2023-04-12T00:14:22;33.25;;;5.28;;
75234;SDS011;63817;51.228;-1.472;2023-04-12T00:16:47;29.40;;;4.40;;
75234;SDS011;63817;51.228;-1.472;2023-04-12T00:19:13;30.10;;;5.57;;
75234;SDS011;63817;51.228;-1.472;2023-04-12T00:21:40;34.33;;;4.80;;
75234;SDS011;63817;51.228;-1.472;2023-04-12T00:24:06;26.58;;;5.75;;
75234;SDS011;63817;51.228;-1.472;2023-04-12T00:26:31;31.35;;;4.82;;
75234;SDS011;63817;51.228;-1.472;2023-04-12T00:28:57;25.15;;;4.55;;
75234;SDS011;63817;51.228;-1.472;2023-04-12T00:31:22;35.83;;;4.75;;
75234;SDS011;63817;51.228;-1.472;2023-04-12T00:33:47;35.17;;;5.30;;
75234;SDS011;63817;51.228;-1.472;2023-04-12T00:36:13;37.75;;;4.93;;
75234;SDS011;63817;51.228;-1.472;2023-04-12T00:38:38;26.83;;;4.50;;
75234;SDS011;63817;51.228;-1.472;2023-04-12T00:41:04;32.00;;;4.78;;
75234;SDS011;63817;51.228;-1.472;2023-04-12T00:43:29;36.55;;;6.35;;
75234;SDS011;63817;51.228;-1.472;2023-04-12T00:45:55;27.38;;;4.72;;
75234;SDS011;63817;51.228;-1.472;2023-04-12T00:48:24;36.45;;;4.82;;
75234;SDS011;63817;51.228;-1.472;2023-04-12T00:50:51;31.30;;;5.38;;
75234;SDS011;63817;51.228;-1.472;2023-04-12T00:53:19;37.45;;;5.70;;
75234;SDS011;63817;51.228;-1.472;2023-04-12T00:55:46;42.35;;;6.38;;
75234;SDS011;63817;51.228;-1.472;2023-04-12T00:58:12;36.08;;;5.38;;
75234;SDS011;63817;51.228;-1.472;2023-04-12T01:00:38;20.65;;;3.95;;
75234;SDS011;63817;51.228;-1.472;2023-04-12T01:03:04;47.97;;;6.03;;
75234;SDS011;63817;51.228;-1.472;2023-04-12T01:05:30;37.42;;;5.20;;
75234;SDS011;63817;51.228;-1.472;2023-04-12T01:11:54;33.38;;;4.70;;
75234;SDS011;63817;51.228;-1.472;2023-04-12T01:16:40;50.45;;;6.43;;
75234;SDS011;63817;51.228;-1.472;2023-04-12T01:19:32;36.20;;;5.88;;
75234;SDS011;63817;51.228;-1.472;2023-04-12T01:27:53;38.70;;;5.57;;
75234;SDS011;63817;51.228;-1.472;2023-04-12T01:30:20;41.15;;;6.40;;
75234;SDS011;63817;51.228;-1.472;2023-04-12T01:32:48;34.85;;;5.15;;
75234;SDS011;63817;51.228;-1.472;2023-04-12T01:35:18;41.33;;;5.20;;
75234;SDS011;63817;51.228;-1.472;2023-04-12T01:37:45;61.65;;;5.90;;
75234;SDS011;63817;51.228;-1.472;2023-04-12T01:40:11;38.47;;;5.68;;
75234;SDS011;63817;51.228;-1.472;2023-04-12T01:42:37;35.88;;;5.40;;
75234;SDS011;63817;51.228;-1.472;2023-04-12T01:45:03;30.65;;;4.47;;
75234;SDS011;63817;51.228;-1.472;2023-04-12T01:47:30;30.83;;;4.70;;
75234;SDS011;63817;51.228;-1.472;2023-04-12T01:50:07;35.33;;;5.28;;
75234;SDS011;63817;51.228;-1.472;2023-04-12T01:52:41;34.75;;;5.43;;
75234;SDS011;63817;51.228;-1.472;2023-04-12T01:55:09;34.15;;;5.20;;
75234;SDS011;63817;51.228;-1.472;2023-04-12T01:57:36;33.85;;;5.15;;
75234;SDS011;63817;51.228;-1.472;2023-04-12T02:00:03;32.22;;;5.18;;
75234;SDS011;63817;51.228;-1.472;2023-04-12T02:02:31;34.55;;;5.57;;
75234;SDS011;63817;51.228;-1.472;2023-04-12T02:04:59;33.90;;;4.82;;
75234;SDS011;63817;51.228;-1.472;2023-04-12T02:07:26;25.10;;;3.85;;
75234;SDS011;63817;51.228;-1.472;2023-04-12T02:09:51;29.85;;;4.95;;
75234;SDS011;63817;51.228;-1.472;2023-04-12T02:12:17;27.08;;;4.85;;
75234;SDS011;63817;51.228;-1.472;2023-04-12T02:14:42;25.70;;;4.10;;
75234;SDS011;63817;51.228;-1.472;2023-04-12T02:17:08;23.73;;;4.45;;
75234;SDS011;63817;51.228;-1.472;2023-04-12T02:19:34;24.83;;;3.90;;
75234;SDS011;63817;51.228;-1.472;2023-04-12T02:21:59;27.85;;;3.75;;
75234;SDS011;63817;51.228;-1.472;2023-04-12T02:24:26;24.38;;;4.45;;
75234;SDS011;63817;51.228;-1.472;2023-04-12T02:26:51;34.67;;;4.38;;
75234;SDS011;63817;51.228;-1.472;2023-04-12T02:29:18;26.70;;;5.38;;
75234;SDS011;63817;51.228;-1.472;2023-04-12T02:31:44;27.67;;;4.97;;
75234;SDS011;63817;51.228;-1.472;2023-04-12T02:34:10;36.75;;;5.68;;
75234;SDS011;63817;51.228;-1.472;2023-04-12T02:36:37;33.28;;;4.70;;
75234;SDS011;63817;51.228;-1.472;2023-04-12T02:39:02;24.33;;;4.47;;
75234;SDS011;63817;51.228;-1.472;2023-04-12T02:41:28;33.08;;;4.32;;
75234;SDS011;63817;51.228;-1.472;2023-04-12T02:43:53;25.30;;;3.33;;
75234;SDS011;63817;51.228;-1.472;2023-04-12T02:46:21;27.75;;;3.85;;
75234;SDS011;63817;51.228;-1.472;2023-04-12T02:48:48;20.63;;;3.05;;
75234;SDS011;63817;51.228;-1.472;2023-04-12T02:51:13;22.40;;;3.70;;
75234;SDS011;63817;51.228;-1.472;2023-04-12T02:53:39;20.33;;;3.28;;
75234;SDS011;63817;51.228;-1.472;2023-04-12T02:56:05;18.75;;;2.88;;
75234;SDS011;63817;51.228;-1.472;2023-04-12T02:58:32;14.50;;;2.47;;
75234;SDS011;63817;51.228;-1.472;2023-04-12T03:01:02;20.17;;;3.58;;
75234;SDS011;63817;51.228;-1.472;2023-04-12T03:03:31;25.70;;;4.05;;
75234;SDS011;63817;51.228;-1.472;2023-04-12T03:05:57;16.55;;;2.80;;
75234;SDS011;63817;51.228;-1.472;2023-04-12T03:08:22;19.85;;;3.22;;
75234;SDS011;63817;51.228;-1.472;2023-04-12T03:10:48;21.30;;;3.97;;
75234;SDS011;63817;51.228;-1.472;2023-04-12T03:13:13;16.95;;;3.88;;
75234;SDS011;63817;51.228;-1.472;2023-04-12T03:15:38;21.35;;;3.28;;
75234;SDS011;63817;51.228;-1.472;2023-04-12T03:18:04;22.88;;;3.72;;
75234;SDS011;63817;51.228;-1.472;2023-04-12T03:20:29;29.23;;;3.55;;
75234;SDS011;63817;51.228;-1.472;2023-04-12T03:22:55;18.30;;;3.40;;
75234;SDS011;63817;51.228;-1.472;2023-04-12T03:25:20;31.98;;;4.85;;
75234;SDS011;63817;51.228;-1.472;2023-04-12T03:27:46;29.80;;;4.18;;
75234;SDS011;63817;51.228;-1.472;2023-04-12T03:30:11;23.50;;;3.70;;
75234;SDS011;63817;51.228;-1.472;2023-04-12T03:32:40;26.25;;;3.75;;
75234;SDS011;63817;51.228;-1.472;2023-04-12T03:35:06;22.42;;;4.57;;
75234;SDS011;63817;51.228;-1.472;2023-04-12T03:37:33;30.77;;;3.28;;
75234;SDS011;63817;51.228;-1.472;2023-04-12T03:39:59;29.77;;;5.00;;
75234;SDS011;63817;51.228;-1.472;2023-04-12T03:42:24;28.50;;;4.15;;
75234;SDS011;63817;51.228;-1.472;2023-04-12T03:44:51;31.50;;;5.40;;
75234;SDS011;63817;51.228;-1.472;2023-04-12T03:47:16;30.90;;;4.35;;
75234;SDS011;63817;51.228;-1.472;2023-04-12T03:49:42;18.45;;;3.25;;
75234;SDS011;63817;51.228;-1.472;2023-04-12T03:52:08;29.48;;;4.15;;
75234;SDS011;63817;51.228;-1.472;2023-04-12T03:54:33;33.50;;;4.18;;
75234;SDS011;63817;51.228;-1.472;2023-04-12T03:56:58;26.98;;;4.05;;
75234;SDS011;63817;51.228;-1.472;2023-04-12T03:59:25;27.90;;;4.18;;
75234;SDS011;63817;51.228;-1.472;2023-04-12T04:01:51;30.05;;;4.05;;
75234;SDS011;63817;51.228;-1.472;2023-04-12T04:04:16;21.33;;;4.07;;
75234;SDS011;63817;51.228;-1.472;2023-04-12T04:06:42;28.08;;;4.22;;
75234;SDS011;63817;51.228;-1.472;2023-04-12T04:09:07;35.95;;;4.53;;
75234;SDS011;63817;51.228;-1.472;2023-04-12T04:11:32;22.38;;;3.17;;
75234;SDS011;63817;51.228;-1.472;2023-04-12T04:13:58;22.55;;;3.30;;
75234;SDS011;63817;51.228;-1.472;2023-04-12T04:16:23;34.65;;;4.07;;
75234;SDS011;63817;51.228;-1.472;2023-04-12T04:18:48;18.95;;;2.60;;
75234;SDS011;63817;51.228;-1.472;2023-04-12T04:21:14;21.75;;;3.08;;
75234;SDS011;63817;51.228;-1.472;2023-04-12T04:23:39;28.33;;;4.03;;
75234;SDS011;63817;51.228;-1.472;2023-04-12T04:26:09;25.55;;;4.10;;
75234;SDS011;63817;51.228;-1.472;2023-04-12T04:28:38;29.50;;;3.78;;
75234;SDS011;63817;51.228;-1.472;2023-04-12T04:31:06;34.13;;;3.40;;
75234;SDS011;63817;51.228;-1.472;2023-04-12T04:33:34;18.30;;;2.90;;
75234;SDS011;63817;51.228;-1.472;2023-04-12T04:36:00;22.83;;;3.42;;
75234;SDS011;63817;51.228;-1.472;2023-04-12T04:38:27;24.63;;;3.63;;
75234;SDS011;63817;51.228;-1.472;2023-04-12T04:40:52;24.20;;;3.20;;
75234;SDS011;63817;51.228;-1.472;2023-04-12T04:43:18;27.92;;;3.38;;
75234;SDS011;63817;51.228;-1.472;2023-04-12T04:45:45;18.10;;;2.60;;
75234;SDS011;63817;51.228;-1.472;2023-04-12T04:48:13;32.65;;;3.20;;
75234;SDS011;63817;51.228;-1.472;2023-04-12T04:50:38;23.30;;;4.30;;
75234;SDS011;63817;51.228;-1.472;2023-04-12T04:53:04;24.05;;;3.95;;
75234;SDS011;63817;51.228;-1.472;2023-04-12T04:55:30;27.48;;;3.88;;
75234;SDS011;63817;51.228;-1.472;2023-04-12T04:57:55;32.08;;;3.55;;
75234;SDS011;63817;51.228;-1.472;2023-04-12T05:00:21;31.25;;;4.13;;
75234;SDS011;63817;51.228;-1.472;2023-04-12T05:02:49;30.42;;;3.38;;
75234;SDS011;63817;51.228;-1.472;2023-04-12T05:05:15;25.55;;;4.07;;
75234;SDS011;63817;51.228;-1.472;2023-04-12T05:07:41;30.45;;;3.58;;
75234;SDS011;63817;51.228;-1.472;2023-04-12T05:10:09;34.20;;;3.95;;
75234;SDS011;63817;51.228;-1.472;2023-04-12T05:12:35;29.52;;;4.05;;
75234;SDS011;63817;51.228;-1.472;2023-04-12T05:15:02;22.95;;;3.10;;
75234;SDS011;63817;51.228;-1.472;2023-04-12T05:17:27;27.00;;;3.45;;
75234;SDS011;63817;51.228;-1.472;2023-04-12T05:19:53;30.60;;;4.50;;
75234;SDS011;63817;51.228;-1.472;2023-04-12T05:22:18;20.27;;;2.90;;
75234;SDS011;63817;51.228;-1.472;2023-04-12T05:24:45;27.48;;;3.72;;
75234;SDS011;63817;51.228;-1.472;2023-04-12T05:27:12;17.55;;;3.50;;
75234;SDS011;63817;51.228;-1.472;2023-04-12T05:29:38;19.95;;;4.20;;
75234;SDS011;63817;51.228;-1.472;2023-04-12T05:32:03;29.90;;;4.15;;
75234;SDS011;63817;51.228;-1.472;2023-04-12T05:34:29;26.20;;;3.25;;
75234;SDS011;63817;51.228;-1.472;2023-04-12T05:36:54;24.35;;;3.95;;
75234;SDS011;63817;51.228;-1.472;2023-04-12T05:39:20;22.52;;;3.67;;
75234;SDS011;63817;51.228;-1.472;2023-04-12T05:41:46;24.92;;;3.72;;
75234;SDS011;63817;51.228;-1.472;2023-04-12T05:44:12;23.95;;;3.78;;
75234;SDS011;63817;51.228;-1.472;2023-04-12T05:46:37;17.98;;;4.10;;
75234;SDS011;63817;51.228;-1.472;2023-04-12T05:49:03;26.38;;;3.97;;
75234;SDS011;63817;51.228;-1.472;2023-04-12T05:51:28;32.63;;;4.57;;
75234;SDS011;63817;51.228;-1.472;2023-04-12T05:53:53;27.67;;;5.05;;
75234;SDS011;63817;51.228;-1.472;2023-04-12T05:56:19;24.58;;;4.50;;
75234;SDS011;63817;51.228;-1.472;2023-04-12T05:58:44;26.73;;;3.03;;
75234;SDS011;63817;51.228;-1.472;2023-04-12T06:01:11;26.90;;;3.63;;
75234;SDS011;63817;51.228;-1.472;2023-04-12T06:03:36;26.27;;;3.60;;
75234;SDS011;63817;51.228;-1.472;2023-04-12T06:06:05;28.08;;;4.20;;
75234;SDS011;63817;51.228;-1.472;2023-04-12T06:08:31;19.35;;;3.08;;
75234;SDS011;63817;51.228;-1.472;2023-04-12T06:10:57;28.15;;;4.75;;
75234;SDS011;63817;51.228;-1.472;2023-04-12T06:13:22;26.00;;;3.50;;
75234;SDS011;63817;51.228;-1.472;2023-04-12T06:15:47;25.42;;;3.90;;
75234;SDS011;63817;51.228;-1.472;2023-04-12T06:18:13;22.83;;;3.47;;
75234;SDS011;63817;51.228;-1.472;2023-04-12T06:20:39;18.77;;;2.72;;
75234;SDS011;63817;51.228;-1.472;2023-04-12T06:23:05;29.30;;;4.88;;
75234;SDS011;63817;51.228;-1.472;2023-04-12T06:25:30;21.25;;;3.33;;
75234;SDS011;63817;51.228;-1.472;2023-04-12T06:27:56;21.38;;;4.22;;
75234;SDS011;63817;51.228;-1.472;2023-04-12T06:30:22;21.33;;;3.60;;
75234;SDS011;63817;51.228;-1.472;2023-04-12T06:32:47;23.75;;;3.08;;
75234;SDS011;63817;51.228;-1.472;2023-04-12T06:35:13;25.70;;;3.80;;
75234;SDS011;63817;51.228;-1.472;2023-04-12T06:37:38;17.48;;;3.42;;
75234;SDS011;63817;51.228;-1.472;2023-04-12T06:40:04;33.15;;;3.50;;
75234;SDS011;63817;51.228;-1.472;2023-04-12T06:42:30;12.45;;;2.55;;
75234;SDS011;63817;51.228;-1.472;2023-04-12T06:44:55;15.75;;;2.47;;
75234;SDS011;63817;51.228;-1.472;2023-04-12T06:47:21;16.95;;;3.08;;
75234;SDS011;63817;51.228;-1.472;2023-04-12T06:49:46;17.38;;;3.08;;
75234;SDS011;63817;51.228;-1.472;2023-04-12T06:52:12;18.40;;;2.83;;
75234;SDS011;63817;51.228;-1.472;2023-04-12T06:54:38;16.63;;;3.28;;
75234;SDS011;63817;51.228;-1.472;2023-04-12T06:57:07;31.15;;;3.15;;
75234;SDS011;63817;51.228;-1.472;2023-04-12T06:59:33;22.83;;;3.97;;
75234;SDS011;63817;51.228;-1.472;2023-04-12T07:01:59;19.90;;;2.92;;
75234;SDS011;63817;51.228;-1.472;2023-04-12T07:04:24;26.50;;;3.88;;
75234;SDS011;63817;51.228;-1.472;2023-04-12T07:06:49;130.88;;;7.80;;
75234;SDS011;63817;51.228;-1.472;2023-04-12T07:09:15;250.35;;;12.00;;
75234;SDS011;63817;51.228;-1.472;2023-04-12T07:11:40;18.55;;;3.00;;
75234;SDS011;63817;51.228;-1.472;2023-04-12T07:14:05;16.10;;;2.88;;
75234;SDS011;63817;51.228;-1.472;2023-04-12T07:16:31;22.95;;;3.13;;
75234;SDS011;63817;51.228;-1.472;2023-04-12T07:18:57;32.75;;;4.38;;
75234;SDS011;63817;51.228;-1.472;2023-04-12T07:21:23;17.70;;;3.50;;
75234;SDS011;63817;51.228;-1.472;2023-04-12T07:23:49;27.17;;;3.50;;
75234;SDS011;63817;51.228;-1.472;2023-04-12T07:26:15;20.75;;;2.75;;
75234;SDS011;63817;51.228;-1.472;2023-04-12T07:28:41;20.35;;;2.90;;
75234;SDS011;63817;51.228;-1.472;2023-04-12T07:31:07;15.02;;;2.33;;
75234;SDS011;63817;51.228;-1.472;2023-04-12T07:33:32;10.68;;;2.17;;
75234;SDS011;63817;51.228;-1.472;2023-04-12T07:36:01;30.48;;;3.17;;
75234;SDS011;63817;51.228;-1.472;2023-04-12T07:38:27;19.35;;;3.88;;
75234;SDS011;63817;51.228;-1.472;2023-04-12T07:40:53;16.80;;;2.35;;
75234;SDS011;63817;51.228;-1.472;2023-04-12T07:43:20;31.75;;;4.45;;
75234;SDS011;63817;51.228;-1.472;2023-04-12T07:45:45;14.23;;;2.17;;
75234;SDS011;63817;51.228;-1.472;2023-04-12T07:48:11;18.45;;;2.88;;
75234;SDS011;63817;51.228;-1.472;2023-04-12T07:50:36;16.90;;;2.25;;
75234;SDS011;63817;51.228;-1.472;2023-04-12T07:53:19;35.72;;;3.13;;
75234;SDS011;63817;51.228;-1.472;2023-04-12T07:55:48;24.63;;;3.25;;
75234;SDS011;63817;51.228;-1.472;2023-04-12T07:58:15;24.60;;;4.38;;
75234;SDS011;63817;51.228;-1.472;2023-04-12T08:00:41;14.70;;;2.67;;
75234;SDS011;63817;51.228;-1.472;2023-04-12T08:03:07;17.23;;;2.38;;
75234;SDS011;63817;51.228;-1.472;2023-04-12T08:05:32;14.30;;;3.22;;
75234;SDS011;63817;51.228;-1.472;2023-04-12T08:07:58;15.10;;;2.58;;
75234;SDS011;63817;51.228;-1.472;2023-04-12T08:10:23;27.77;;;2.80;;
75234;SDS011;63817;51.228;-1.472;2023-04-12T08:12:49;12.77;;;2.08;;
75234;SDS011;63817;51.228;-1.472;2023-04-12T08:15:14;18.27;;;3.55;;
75234;SDS011;63817;51.228;-1.472;2023-04-12T08:17:40;10.77;;;2.15;;
75234;SDS011;63817;51.228;-1.472;2023-04-12T08:20:07;12.60;;;2.00;;
75234;SDS011;63817;51.228;-1.472;2023-04-12T08:22:33;14.00;;;2.15;;
75234;SDS011;63817;51.228;-1.472;2023-04-12T08:24:59;10.93;;;2.05;;
75234;SDS011;63817;51.228;-1.472;2023-04-12T08:27:25;15.55;;;2.10;;
75234;SDS011;63817;51.228;-1.472;2023-04-12T08:29:51;11.85;;;1.58;;
75234;SDS011;63817;51.228;-1.472;2023-04-12T08:32:16;9.90;;;1.90;;
75234;SDS011;63817;51.228;-1.472;2023-04-12T08:34:41;13.85;;;2.35;;
75234;SDS011;63817;51.228;-1.472;2023-04-12T08:37:07;14.85;;;1.90;;
75234;SDS011;63817;51.228;-1.472;2023-04-12T08:39:32;6.80;;;1.52;;
75234;SDS011;63817;51.228;-1.472;2023-04-12T08:41:59;8.30;;;2.08;;
75234;SDS011;63817;51.228;-1.472;2023-04-12T08:44:32;9.65;;;1.40;;
75234;SDS011;63817;51.228;-1.472;2023-04-12T08:47:00;6.60;;;1.95;;
75234;SDS011;63817;51.228;-1.472;2023-04-12T08:49:26;13.73;;;2.03;;
75234;SDS011;63817;51.228;-1.472;2023-04-12T08:51:52;6.45;;;1.52;;
75234;SDS011;63817;51.228;-1.472;2023-04-12T08:54:18;15.13;;;2.10;;
75234;SDS011;63817;51.228;-1.472;2023-04-12T08:56:44;9.85;;;1.92;;
75234;SDS011;63817;51.228;-1.472;2023-04-12T08:59:10;10.20;;;1.48;;
75234;SDS011;63817;51.228;-1.472;2023-04-12T09:01:36;13.75;;;1.95;;
75234;SDS011;63817;51.228;-1.472;2023-04-12T09:04:05;9.65;;;1.48;;
75234;SDS011;63817;51.228;-1.472;2023-04-12T09:06:32;13.73;;;3.08;;
75234;SDS011;63817;51.228;-1.472;2023-04-12T09:08:57;12.85;;;2.00;;
75234;SDS011;63817;51.228;-1.472;2023-04-12T09:11:27;19.88;;;1.92;;
75234;SDS011;63817;51.228;-1.472;2023-04-12T09:13:54;17.13;;;2.55;;
75234;SDS011;63817;51.228;-1.472;2023-04-12T09:19:38;7.75;;;1.92;;
75234;SDS011;63817;51.228;-1.472;2023-04-12T09:22:03;13.52;;;2.10;;
75234;SDS011;63817;51.228;-1.472;2023-04-12T09:24:28;8.35;;;1.80;;
75234;SDS011;63817;51.228;-1.472;2023-04-12T09:27:00;6.70;;;1.67;;
75234;SDS011;63817;51.228;-1.472;2023-04-12T09:29:27;7.75;;;1.55;;
75234;SDS011;63817;51.228;-1.472;2023-04-12T09:32:10;11.73;;;1.95;;
75234;SDS011;63817;51.228;-1.472;2023-04-12T09:34:36;8.68;;;1.90;;
75234;SDS011;63817;51.228;-1.472;2023-04-12T09:37:12;11.32;;;2.30;;
75234;SDS011;63817;51.228;-1.472;2023-04-12T09:39:38;10.18;;;2.15;;
75234;SDS011;63817;51.228;-1.472;2023-04-12T09:42:08;16.33;;;2.35;;
75234;SDS011;63817;51.228;-1.472;2023-04-12T09:44:35;8.23;;;1.90;;
75234;SDS011;63817;51.228;-1.472;2023-04-12T09:47:01;15.05;;;2.75;;
75234;SDS011;63817;51.228;-1.472;2023-04-12T09:49:39;12.57;;;2.33;;
75234;SDS011;63817;51.228;-1.472;2023-04-12T09:52:06;13.40;;;2.72;;
75234;SDS011;63817;51.228;-1.472;2023-04-12T09:54:50;14.00;;;2.13;;
75234;SDS011;63817;51.228;-1.472;2023-04-12T09:57:16;10.48;;;2.05;;
75234;SDS011;63817;51.228;-1.472;2023-04-12T09:59:43;9.35;;;2.67;;
75234;SDS011;63817;51.228;-1.472;2023-04-12T10:02:18;12.30;;;2.67;;
75234;SDS011;63817;51.228;-1.472;2023-04-12T10:04:47;12.77;;;2.78;;
75234;SDS011;63817;51.228;-1.472;2023-04-12T10:07:13;16.00;;;3.22;;
75234;SDS011;63817;51.228;-1.472;2023-04-12T10:09:39;13.85;;;2.75;;
75234;SDS011;63817;51.228;-1.472;2023-04-12T10:12:06;10.82;;;2.25;;
75234;SDS011;63817;51.228;-1.472;2023-04-12T10:14:32;12.05;;;2.40;;
75234;SDS011;63817;51.228;-1.472;2023-04-12T10:16:58;14.77;;;3.00;;
75234;SDS011;63817;51.228;-1.472;2023-04-12T10:19:25;13.10;;;2.60;;
75234;SDS011;63817;51.228;-1.472;2023-04-12T10:21:53;17.35;;;3.20;;
75234;SDS011;63817;51.228;-1.472;2023-04-12T10:24:22;14.35;;;2.42;;
75234;SDS011;63817;51.228;-1.472;2023-04-12T10:26:48;19.33;;;2.78;;
75234;SDS011;63817;51.228;-1.472;2023-04-12T10:29:24;15.27;;;3.40;;
75234;SDS011;63817;51.228;-1.472;2023-04-12T10:31:51;15.50;;;2.72;;
75234;SDS011;63817;51.228;-1.472;2023-04-12T10:34:26;16.08;;;2.95;;
75234;SDS011;63817;51.228;-1.472;2023-04-12T10:36:59;17.67;;;3.08;;
75234;SDS011;63817;51.228;-1.472;2023-04-12T10:39:41;23.40;;;2.90;;
75234;SDS011;63817;51.228;-1.472;2023-04-12T10:42:21;19.15;;;3.10;;
75234;SDS011;63817;51.228;-1.472;2023-04-12T10:44:52;16.73;;;3.47;;
75234;SDS011;63817;51.228;-1.472;2023-04-12T10:48:05;23.00;;;3.45;;
75234;SDS011;63817;51.228;-1.472;2023-04-12T10:50:24;22.83;;;3.05;;
75234;SDS011;63817;51.228;-1.472;2023-04-12T10:55:40;19.38;;;3.47;;
75234;SDS011;63817;51.228;-1.472;2023-04-12T10:58:07;20.95;;;3.60;;
75234;SDS011;63817;51.228;-1.472;2023-04-12T11:03:20;17.33;;;2.97;;
75234;SDS011;63817;51.228;-1.472;2023-04-12T11:05:59;16.13;;;3.00;;
75234;SDS011;63817;51.228;-1.472;2023-04-12T11:08:27;18.70;;;3.38;;
75234;SDS011;63817;51.228;-1.472;2023-04-12T11:11:02;10.75;;;2.47;;
75234;SDS011;63817;51.228;-1.472;2023-04-12T11:13:35;17.77;;;3.22;;
75234;SDS011;63817;51.228;-1.472;2023-04-12T11:16:02;14.63;;;3.08;;
75234;SDS011;63817;51.228;-1.472;2023-04-12T11:18:31;18.00;;;2.83;;
75234;SDS011;63817;51.228;-1.472;2023-04-12T11:20:59;11.15;;;2.90;;
75234;SDS011;63817;51.228;-1.472;2023-04-12T11:23:25;15.90;;;2.67;;
75234;SDS011;63817;51.228;-1.472;2023-04-12T11:25:51;17.92;;;3.60;;
75234;SDS011;63817;51.228;-1.472;2023-04-12T11:28:19;21.58;;;3.10;;
75234;SDS011;63817;51.228;-1.472;2023-04-12T11:31:03;20.45;;;3.22;;
75234;SDS011;63817;51.228;-1.472;2023-04-12T11:36:01;20.38;;;3.90;;
75234;SDS011;63817;51.228;-1.472;2023-04-12T11:38:28;26.85;;;3.25;;
75234;SDS011;63817;51.228;-1.472;2023-04-12T11:40:54;25.17;;;4.53;;
75234;SDS011;63817;51.228;-1.472;2023-04-12T11:43:19;25.85;;;5.53;;
75234;SDS011;63817;51.228;-1.472;2023-04-12T11:45:45;22.48;;;2.95;;
75234;SDS011;63817;51.228;-1.472;2023-04-12T11:48:10;14.73;;;3.80;;
75234;SDS011;63817;51.228;-1.472;2023-04-12T11:50:36;28.38;;;5.13;;
75234;SDS011;63817;51.228;-1.472;2023-04-12T11:53:10;29.05;;;4.45;;
75234;SDS011;63817;51.228;-1.472;2023-04-12T11:55:36;21.85;;;5.43;;
75234;SDS011;63817;51.228;-1.472;2023-04-12T11:58:02;31.55;;;4.47;;
75234;SDS011;63817;51.228;-1.472;2023-04-12T12:00:27;20.25;;;2.75;;
75234;SDS011;63817;51.228;-1.472;2023-04-12T12:02:55;17.08;;;2.97;;
75234;SDS011;63817;51.228;-1.472;2023-04-12T12:05:20;22.45;;;3.03;;
75234;SDS011;63817;51.228;-1.472;2023-04-12T12:07:46;26.38;;;3.58;;
75234;SDS011;63817;51.228;-1.472;2023-04-12T12:10:11;16.67;;;2.80;;
75234;SDS011;63817;51.228;-1.472;2023-04-12T12:12:37;19.67;;;3.28;;
75234;SDS011;63817;51.228;-1.472;2023-04-12T12:15:02;14.02;;;3.30;;
75234;SDS011;63817;51.228;-1.472;2023-04-12T12:17:28;16.67;;;2.63;;
75234;SDS011;63817;51.228;-1.472;2023-04-12T12:19:55;28.17;;;4.05;;
75234;SDS011;63817;51.228;-1.472;2023-04-12T12:22:21;27.67;;;4.35;;
75234;SDS011;63817;51.228;-1.472;2023-04-12T12:24:50;28.58;;;4.53;;
75234;SDS011;63817;51.228;-1.472;2023-04-12T12:27:17;24.90;;;3.88;;
75234;SDS011;63817;51.228;-1.472;2023-04-12T12:29:47;25.27;;;5.40;;
75234;SDS011;63817;51.228;-1.472;2023-04-12T12:32:13;35.20;;;5.25;;
75234;SDS011;63817;51.228;-1.472;2023-04-12T12:34:39;24.30;;;4.32;;
75234;SDS011;63817;51.228;-1.472;2023-04-12T12:37:11;28.80;;;4.03;;
75234;SDS011;63817;51.228;-1.472;2023-04-12T12:39:37;12.55;;;2.22;;
75234;SDS011;63817;51.228;-1.472;2023-04-12T12:42:02;18.52;;;3.42;;
75234;SDS011;63817;51.228;-1.472;2023-04-12T12:44:30;26.38;;;3.22;;
75234;SDS011;63817;51.228;-1.472;2023-04-12T12:46:57;15.88;;;3.00;;
75234;SDS011;63817;51.228;-1.472;2023-04-12T12:49:23;18.88;;;3.22;;
75234;SDS011;63817;51.228;-1.472;2023-04-12T12:51:49;19.23;;;2.88;;
75234;SDS011;63817;51.228;-1.472;2023-04-12T12:54:15;20.00;;;2.63;;
75234;SDS011;63817;51.228;-1.472;2023-04-12T12:56:40;20.35;;;3.22;;
75234;SDS011;63817;51.228;-1.472;2023-04-12T12:59:06;13.00;;;2.35;;
75234;SDS011;63817;51.228;-1.472;2023-04-12T13:01:31;17.00;;;3.22;;
75234;SDS011;63817;51.228;-1.472;2023-04-12T13:03:57;8.55;;;2.63;;
75234;SDS011;63817;51.228;-1.472;2023-04-12T13:06:22;17.23;;;2.60;;
75234;SDS011;63817;51.228;-1.472;2023-04-12T13:08:49;10.63;;;2.05;;
75234;SDS011;63817;51.228;-1.472;2023-04-12T13:11:16;17.40;;;2.30;;
75234;SDS011;63817;51.228;-1.472;2023-04-12T13:13:41;12.45;;;2.63;;
75234;SDS011;63817;51.228;-1.472;2023-04-12T13:16:07;12.82;;;1.83;;
75234;SDS011;63817;51.228;-1.472;2023-04-12T13:18:32;11.30;;;2.08;;
75234;SDS011;63817;51.228;-1.472;2023-04-12T13:20:57;7.82;;;1.60;;
75234;SDS011;63817;51.228;-1.472;2023-04-12T13:23:23;16.05;;;3.13;;
75234;SDS011;63817;51.228;-1.472;2023-04-12T13:25:48;20.15;;;3.38;;
75234;SDS011;63817;51.228;-1.472;2023-04-12T13:28:13;16.30;;;2.65;;
75234;SDS011;63817;51.228;-1.472;2023-04-12T13:30:40;15.73;;;2.75;;
75234;SDS011;63817;51.228;-1.472;2023-04-12T13:33:06;10.55;;;2.58;;
75234;SDS011;63817;51.228;-1.472;2023-04-12T13:35:32;22.00;;;2.70;;
75234;SDS011;63817;51.228;-1.472;2023-04-12T13:37:58;16.50;;;2.75;;
75234;SDS011;63817;51.228;-1.472;2023-04-12T13:40:23;17.65;;;4.47;;
75234;SDS011;63817;51.228;-1.472;2023-04-12T13:42:48;16.88;;;3.03;;
75234;SDS011;63817;51.228;-1.472;2023-04-12T13:45:14;14.30;;;2.47;;
75234;SDS011;63817;51.228;-1.472;2023-04-12T13:47:39;14.00;;;2.42;;
75234;SDS011;63817;51.228;-1.472;2023-04-12T13:50:05;25.45;;;3.42;;
75234;SDS011;63817;51.228;-1.472;2023-04-12T13:52:31;9.88;;;1.90;;
75234;SDS011;63817;51.228;-1.472;2023-04-12T13:54:57;9.63;;;2.20;;
75234;SDS011;63817;51.228;-1.472;2023-04-12T13:57:23;9.00;;;1.55;;
75234;SDS011;63817;51.228;-1.472;2023-04-12T13:59:48;8.60;;;2.10;;
75234;SDS011;63817;51.228;-1.472;2023-04-12T14:02:14;14.98;;;2.20;;
75234;SDS011;63817;51.228;-1.472;2023-04-12T14:04:49;11.70;;;2.30;;
75234;SDS011;63817;51.228;-1.472;2023-04-12T14:07:19;19.38;;;2.38;;
75234;SDS011;63817;51.228;-1.472;2023-04-12T14:09:45;15.40;;;2.28;;
75234;SDS011;63817;51.228;-1.472;2023-04-12T14:12:12;15.20;;;3.20;;
75234;SDS011;63817;51.228;-1.472;2023-04-12T14:14:38;13.68;;;2.17;;
75234;SDS011;63817;51.228;-1.472;2023-04-12T14:17:03;13.00;;;1.70;;
75234;SDS011;63817;51.228;-1.472;2023-04-12T14:19:29;13.50;;;2.03;;
75234;SDS011;63817;51.228;-1.472;2023-04-12T14:21:54;13.48;;;1.70;;
75234;SDS011;63817;51.228;-1.472;2023-04-12T14:24:20;12.75;;;2.50;;
75234;SDS011;63817;51.228;-1.472;2023-04-12T14:26:46;21.55;;;3.80;;
75234;SDS011;63817;51.228;-1.472;2023-04-12T14:29:14;16.50;;;2.45;;
75234;SDS011;63817;51.228;-1.472;2023-04-12T14:31:39;16.50;;;2.72;;
75234;SDS011;63817;51.228;-1.472;2023-04-12T14:34:05;14.02;;;3.00;;
75234;SDS011;63817;51.228;-1.472;2023-04-12T14:36:32;15.68;;;2.20;;
75234;SDS011;63817;51.228;-1.472;2023-04-12T14:38:58;20.88;;;3.65;;
75234;SDS011;63817;51.228;-1.472;2023-04-12T14:41:23;14.73;;;2.63;;
75234;SDS011;63817;51.228;-1.472;2023-04-12T14:43:49;13.30;;;2.28;;